Time;durP1;ratioP1;P1;durP2;ratioP2;P2;SDS_P1;SDS_P2;PMS_P1;PMS_P2;Temp;Humidity;BMP_temperature;BMP_pressure;BME280_temperature;BME280_humidity;BME280_pressure;Samples;Min_cycle;Max_cycle;Signal;HPM_P1;HPM_P2
2022/11/05 00:10:26;;;;;;;36.55;21.10;;;;;;;;;;4937452;29;20368;-67
2022/11/05 00:18:26;;;;;;;38.33;22.08;;;;;;;;;;4937307;29;20051;-67
2022/11/05 00:20:53;;;;;;;40.35;22.30;;;;;;;;;;4937138;29;20549;-67
2022/11/05 00:26:08;;;;;;;40.03;22.98;;;;;;;;;;4937113;29;20459;-67
2022/11/05 00:28:35;;;;;;;40.22;22.80;;;;;;;;;;4937120;29;20143;-67
2022/11/05 00:31:08;;;;;;;38.22;21.95;;;;;;;;;;4935947;29;20139;-67
2022/11/05 00:33:36;;;;;;;39.00;23.10;;;;;;;;;;4937024;29;20130;-67
2022/11/05 00:36:04;;;;;;;41.63;21.67;;;;;;;;;;4936741;29;20135;-68
2022/11/05 00:38:32;;;;;;;38.20;22.52;;;;;;;;;;4936968;29;20043;-68
2022/11/05 00:40:59;;;;;;;45.83;24.15;;;;;;;;;;4936800;29;20047;-67
2022/11/05 00:46:13;;;;;;;38.47;22.45;;;;;;;;;;4936687;29;20044;-67
2022/11/05 00:51:26;;;;;;;38.20;21.55;;;;;;;;;;4935298;29;20434;-67
2022/11/05 00:53:54;;;;;;;39.05;22.77;;;;;;;;;;4936530;29;20131;-67
2022/11/05 00:56:21;;;;;;;36.63;22.92;;;;;;;;;;4936517;29;20058;-67
2022/11/05 00:58:49;;;;;;;38.63;22.08;;;;;;;;;;4936590;29;20084;-68
2022/11/05 01:01:16;;;;;;;37.92;22.13;;;;;;;;;;4936506;29;20558;-68
2022/11/05 01:03:44;;;;;;;38.72;23.90;;;;;;;;;;4936490;29;20062;-67
2022/11/05 01:06:18;;;;;;;39.95;22.75;;;;;;;;;;4936212;29;20111;-67
2022/11/05 01:08:45;;;;;;;37.08;22.60;;;;;;;;;;4936350;29;20135;-67
2022/11/05 01:11:40;;;;;;;33.83;22.02;;;;;;;;;;4936342;29;20039;-67
2022/11/05 01:14:06;;;;;;;37.85;22.55;;;;;;;;;;4936185;29;20517;-67
2022/11/05 01:16:35;;;;;;;35.20;23.08;;;;;;;;;;4936317;29;20107;-67
2022/11/05 01:19:03;;;;;;;38.10;23.02;;;;;;;;;;4936083;29;20044;-67
2022/11/05 01:21:30;;;;;;;39.88;23.40;;;;;;;;;;4936220;29;20039;-67
2022/11/05 01:23:58;;;;;;;39.40;22.55;;;;;;;;;;4936181;29;20048;-67
2022/11/05 01:26:26;;;;;;;40.08;22.35;;;;;;;;;;4936085;29;20494;-67
2022/11/05 01:28:54;;;;;;;44.22;24.73;;;;;;;;;;4936037;29;20126;-67
2022/11/05 01:31:22;;;;;;;42.55;22.70;;;;;;;;;;4935835;29;20495;-67
2022/11/05 01:33:50;;;;;;;43.40;23.25;;;;;;;;;;4935151;29;20486;-67
2022/11/05 01:36:17;;;;;;;36.17;23.30;;;;;;;;;;4935870;29;20103;-68
2022/11/05 01:38:45;;;;;;;43.00;23.83;;;;;;;;;;4935898;29;20048;-67
2022/11/05 01:41:12;;;;;;;41.50;24.45;;;;;;;;;;4935656;29;20071;-67
2022/11/05 01:43:50;;;;;;;40.03;23.50;;;;;;;;;;4936142;29;20410;-67
2022/11/05 01:46:21;;;;;;;36.55;22.63;;;;;;;;;;4934533;29;20071;-67
2022/11/05 01:48:51;;;;;;;38.55;22.42;;;;;;;;;;4935785;29;20051;-67
2022/11/05 01:51:26;;;;;;;38.03;22.70;;;;;;;;;;4935568;29;20040;-67
2022/11/05 01:53:56;;;;;;;40.30;23.67;;;;;;;;;;4935617;29;20051;-68
2022/11/05 01:56:27;;;;;;;42.50;22.95;;;;;;;;;;4935658;29;20071;-67
2022/11/05 01:58:57;;;;;;;38.63;23.70;;;;;;;;;;4935552;29;20049;-67
2022/11/05 02:01:24;;;;;;;40.40;22.42;;;;;;;;;;4935534;29;20043;-67
2022/11/05 02:03:54;;;;;;;42.88;23.17;;;;;;;;;;4935594;29;20086;-67
2022/11/05 02:06:22;;;;;;;41.90;23.95;;;;;;;;;;4935514;29;20040;-67
2022/11/05 02:08:52;;;;;;;35.85;23.40;;;;;;;;;;4935460;29;20047;-67
2022/11/05 02:11:20;;;;;;;39.25;23.27;;;;;;;;;;4935253;29;20040;-67
2022/11/05 02:13:48;;;;;;;41.33;24.38;;;;;;;;;;4935407;29;20068;-67
2022/11/05 02:16:15;;;;;;;40.03;23.80;;;;;;;;;;4934057;29;20044;-67
2022/11/05 02:18:55;;;;;;;40.08;23.50;;;;;;;;;;4935439;29;20118;-67
2022/11/05 02:21:25;;;;;;;39.30;23.95;;;;;;;;;;4934004;29;20043;-67
2022/11/05 02:24:00;;;;;;;38.65;23.23;;;;;;;;;;4935402;29;20050;-67
2022/11/05 02:26:46;;;;;;;40.92;24.73;;;;;;;;;;4935390;29;20050;-67
2022/11/05 02:29:32;;;;;;;40.42;24.60;;;;;;;;;;4934022;29;20150;-67
2022/11/05 02:32:00;;;;;;;45.30;24.48;;;;;;;;;;4935326;29;20056;-67
2022/11/05 02:34:27;;;;;;;48.15;26.35;;;;;;;;;;4933922;29;20465;-67
2022/11/05 02:37:05;;;;;;;40.78;23.85;;;;;;;;;;4935012;29;20059;-67
2022/11/05 02:39:43;;;;;;;50.30;26.42;;;;;;;;;;4935212;29;20062;-67
2022/11/05 02:42:15;;;;;;;44.70;25.95;;;;;;;;;;4935366;29;20046;-67
2022/11/05 02:45:05;;;;;;;42.90;26.38;;;;;;;;;;4935465;29;20039;-67
2022/11/05 02:47:50;;;;;;;47.88;26.00;;;;;;;;;;4939025;29;20494;-67
2022/11/05 02:50:18;;;;;;;45.00;25.97;;;;;;;;;;4937977;29;20036;-67
2022/11/05 02:52:51;;;;;;;39.15;24.98;;;;;;;;;;4938753;29;20075;-67
2022/11/05 02:55:36;;;;;;;47.63;26.67;;;;;;;;;;4939001;29;20075;-67
2022/11/05 02:58:04;;;;;;;40.72;25.08;;;;;;;;;;4938911;29;20040;-67
2022/11/05 03:00:51;;;;;;;41.70;25.30;;;;;;;;;;4938789;29;20043;-67
2022/11/05 03:03:18;;;;;;;38.65;24.52;;;;;;;;;;4938841;29;20409;-67
2022/11/05 03:05:49;;;;;;;39.40;25.85;;;;;;;;;;4938668;29;20372;-68
2022/11/05 03:08:27;;;;;;;38.20;24.73;;;;;;;;;;4938453;29;20052;-68
2022/11/05 03:10:59;;;;;;;38.88;24.83;;;;;;;;;;4938588;29;20040;-67
2022/11/05 03:13:35;;;;;;;40.00;24.15;;;;;;;;;;4938450;29;20446;-67
2022/11/05 03:16:06;;;;;;;40.80;23.83;;;;;;;;;;4938457;29;20032;-67
2022/11/05 03:18:41;;;;;;;44.40;24.77;;;;;;;;;;4938304;29;20114;-67
2022/11/05 03:21:11;;;;;;;38.70;23.40;;;;;;;;;;4938452;29;20127;-67
2022/11/05 03:23:45;;;;;;;42.83;24.83;;;;;;;;;;4938613;29;20474;-67
2022/11/05 03:26:17;;;;;;;37.10;23.88;;;;;;;;;;4938138;29;20039;-67
2022/11/05 03:28:47;;;;;;;43.85;25.02;;;;;;;;;;4938294;29;20063;-67
2022/11/05 03:31:16;;;;;;;43.83;24.33;;;;;;;;;;4938015;29;20082;-67
2022/11/05 03:33:44;;;;;;;40.60;24.67;;;;;;;;;;4938014;29;20601;-67
2022/11/05 03:36:15;;;;;;;43.25;23.98;;;;;;;;;;4936495;29;20086;-67
2022/11/05 03:38:44;;;;;;;40.45;24.20;;;;;;;;;;4938256;29;20047;-67
2022/11/05 03:41:13;;;;;;;40.92;24.27;;;;;;;;;;4937812;29;20179;-67
2022/11/05 03:43:44;;;;;;;42.20;24.15;;;;;;;;;;4937917;29;20046;-67
2022/11/05 03:46:50;;;;;;;41.28;25.73;;;;;;;;;;4937648;29;20047;-67
2022/11/05 03:49:21;;;;;;;42.90;24.90;;;;;;;;;;4879089;29;20064;-67
2022/11/05 03:51:51;;;;;;;43.28;24.77;;;;;;;;;;4878904;29;20057;-67
2022/11/05 03:54:18;;;;;;;38.30;24.27;;;;;;;;;;4910655;29;20087;-67
2022/11/05 03:56:50;;;;;;;40.42;23.73;;;;;;;;;;4936803;29;20126;-67
2022/11/05 03:59:19;;;;;;;38.53;23.48;;;;;;;;;;4937663;29;20048;-67
2022/11/05 04:01:47;;;;;;;37.33;23.52;;;;;;;;;;4937283;29;20129;-67
2022/11/05 04:04:14;;;;;;;41.78;23.90;;;;;;;;;;4937646;29;20062;-67
2022/11/05 04:15:17;;;;;;;39.47;23.98;;;;;;;;;;4937343;29;20044;-67
2022/11/05 04:17:44;;;;;;;41.80;25.00;;;;;;;;;;4937352;29;20394;-67
2022/11/05 04:26:06;;;;;;;45.75;24.35;;;;;;;;;;4878358;29;20053;-67
2022/11/05 04:31:19;;;;;;;41.58;24.48;;;;;;;;;;4914167;29;20393;-67
2022/11/05 04:33:46;;;;;;;43.10;25.55;;;;;;;;;;4936939;29;20118;-67
2022/11/05 04:36:14;;;;;;;45.28;24.08;;;;;;;;;;4936578;29;20061;-67
2022/11/05 04:38:41;;;;;;;40.33;23.77;;;;;;;;;;4936957;29;20074;-67
2022/11/05 04:41:13;;;;;;;42.20;24.00;;;;;;;;;;4936832;29;20040;-67
2022/11/05 04:43:40;;;;;;;41.45;25.48;;;;;;;;;;4936943;29;20048;-67
2022/11/05 04:46:08;;;;;;;40.55;25.50;;;;;;;;;;4936596;29;20071;-67
2022/11/05 04:48:35;;;;;;;37.40;24.63;;;;;;;;;;4936981;29;20047;-67
2022/11/05 04:51:03;;;;;;;43.90;24.38;;;;;;;;;;4936619;29;20122;-67
2022/11/05 04:53:31;;;;;;;40.38;24.20;;;;;;;;;;4936491;29;20480;-67
2022/11/05 04:56:10;;;;;;;42.38;25.17;;;;;;;;;;4936804;29;20114;-67
2022/11/05 04:58:39;;;;;;;37.88;24.42;;;;;;;;;;4936614;29;20047;-67
2022/11/05 05:01:10;;;;;;;45.92;25.05;;;;;;;;;;4936664;29;20728;-67
2022/11/05 05:03:37;;;;;;;40.63;24.20;;;;;;;;;;4936581;29;20115;-67
2022/11/05 05:06:04;;;;;;;46.88;26.83;;;;;;;;;;4936358;29;20124;-67
2022/11/05 05:08:32;;;;;;;40.42;24.60;;;;;;;;;;4936332;29;20063;-67
2022/11/05 05:11:07;;;;;;;38.42;23.17;;;;;;;;;;4936313;29;20119;-67
2022/11/05 05:13:34;;;;;;;43.80;24.90;;;;;;;;;;4935864;29;20103;-67
2022/11/05 05:16:09;;;;;;;44.22;24.30;;;;;;;;;;4936104;29;20055;-67
2022/11/05 05:18:36;;;;;;;40.05;23.23;;;;;;;;;;4936137;29;20064;-67
2022/11/05 05:23:57;;;;;;;42.97;24.25;;;;;;;;;;4935989;29;20558;-67
2022/11/05 05:26:24;;;;;;;41.28;22.63;;;;;;;;;;4936146;29;20043;-67
2022/11/05 05:28:52;;;;;;;38.38;22.92;;;;;;;;;;4936140;29;20051;-67
2022/11/05 05:31:20;;;;;;;41.78;23.60;;;;;;;;;;4935975;29;20490;-67
2022/11/05 05:33:48;;;;;;;37.40;22.70;;;;;;;;;;4935973;29;20394;-67
2022/11/05 05:36:15;;;;;;;41.90;23.58;;;;;;;;;;4935777;29;20102;-68
2022/11/05 05:38:43;;;;;;;38.42;24.08;;;;;;;;;;4935964;29;20111;-67
2022/11/05 05:41:10;;;;;;;38.53;24.15;;;;;;;;;;4935877;29;20068;-68
2022/11/05 05:43:37;;;;;;;43.90;25.65;;;;;;;;;;4935674;29;20047;-68
2022/11/05 05:46:06;;;;;;;43.08;24.02;;;;;;;;;;4935794;29;20139;-67
2022/11/05 05:48:34;;;;;;;39.42;24.15;;;;;;;;;;4935764;29;20441;-67
2022/11/05 05:51:02;;;;;;;38.58;24.13;;;;;;;;;;4935641;29;20050;-67
2022/11/05 05:53:29;;;;;;;44.72;27.45;;;;;;;;;;4935405;29;20039;-67
2022/11/05 05:55:57;;;;;;;45.80;27.65;;;;;;;;;;4913951;29;20044;-67
2022/11/05 05:58:25;;;;;;;82.55;45.47;;;;;;;;;;4898411;29;20044;-67
2022/11/05 06:00:53;;;;;;;65.75;36.80;;;;;;;;;;4903397;29;20119;-67
2022/11/05 06:03:21;;;;;;;39.63;26.25;;;;;;;;;;4914926;29;20036;-68
2022/11/05 06:05:48;;;;;;;44.08;25.15;;;;;;;;;;4913937;29;20040;-67
2022/11/05 06:08:16;;;;;;;40.42;24.50;;;;;;;;;;4915614;29;20471;-68
2022/11/05 06:10:50;;;;;;;40.45;25.02;;;;;;;;;;4915935;29;20052;-68
2022/11/05 06:13:17;;;;;;;42.83;24.20;;;;;;;;;;4915946;29;20040;-67
2022/11/05 06:15:45;;;;;;;42.47;25.02;;;;;;;;;;4915885;29;20123;-67
2022/11/05 06:18:12;;;;;;;40.00;24.48;;;;;;;;;;4916085;29;20060;-67
2022/11/05 06:20:40;;;;;;;42.75;24.20;;;;;;;;;;4915527;29;20043;-67
2022/11/05 06:23:08;;;;;;;44.28;24.80;;;;;;;;;;4916187;29;20044;-68
2022/11/05 06:25:36;;;;;;;46.05;29.50;;;;;;;;;;4915955;29;20066;-67
2022/11/05 06:28:07;;;;;;;44.00;26.75;;;;;;;;;;4915834;29;20052;-67
2022/11/05 06:30:35;;;;;;;39.35;25.50;;;;;;;;;;4915881;29;20132;-67
2022/11/05 06:33:05;;;;;;;42.15;24.77;;;;;;;;;;4915988;29;20201;-67
2022/11/05 06:35:32;;;;;;;38.03;23.52;;;;;;;;;;4915635;29;20048;-67
2022/11/05 06:38:00;;;;;;;44.40;24.35;;;;;;;;;;4915818;29;20080;-68
2022/11/05 06:40:28;;;;;;;43.15;24.48;;;;;;;;;;4915615;29;20044;-68
2022/11/05 06:42:56;;;;;;;38.40;25.67;;;;;;;;;;4915944;29;20074;-68
2022/11/05 06:45:24;;;;;;;46.45;30.38;;;;;;;;;;4915764;29;20051;-68
2022/11/05 06:47:55;;;;;;;50.22;31.80;;;;;;;;;;4915801;29;20046;-68
2022/11/05 06:50:24;;;;;;;53.50;33.42;;;;;;;;;;4915880;29;20052;-68
2022/11/05 06:52:58;;;;;;;47.67;30.17;;;;;;;;;;4915652;29;20051;-68
2022/11/05 06:55:27;;;;;;;63.38;39.00;;;;;;;;;;4915755;29;20409;-68
2022/11/05 06:57:55;;;;;;;60.30;37.03;;;;;;;;;;4915525;29;20431;-68
2022/11/05 07:00:23;;;;;;;47.78;29.88;;;;;;;;;;4915695;29;20047;-68
2022/11/05 07:02:50;;;;;;;39.20;27.67;;;;;;;;;;4915642;29;20063;-68
2022/11/05 07:05:18;;;;;;;60.33;34.75;;;;;;;;;;4915436;29;20048;-68
2022/11/05 07:07:45;;;;;;;41.05;25.27;;;;;;;;;;4915742;29;20075;-68
2022/11/05 07:10:14;;;;;;;39.92;24.85;;;;;;;;;;4915460;29;20491;-68
2022/11/05 07:12:42;;;;;;;43.53;26.17;;;;;;;;;;4915185;29;20091;-68
2022/11/05 07:15:10;;;;;;;39.13;24.55;;;;;;;;;;4915155;29;20040;-67
2022/11/05 07:17:38;;;;;;;35.38;24.92;;;;;;;;;;4915656;29;20040;-68
2022/11/05 07:20:07;;;;;;;37.90;25.13;;;;;;;;;;4915340;29;20455;-67
2022/11/05 07:22:35;;;;;;;36.50;22.05;;;;;;;;;;4915503;29;20041;-68
2022/11/05 07:25:02;;;;;;;36.53;22.58;;;;;;;;;;4915701;29;20050;-68
2022/11/05 07:27:30;;;;;;;37.08;22.35;;;;;;;;;;4915297;29;20115;-68
2022/11/05 07:29:57;;;;;;;38.15;23.35;;;;;;;;;;4915665;29;20443;-68
2022/11/05 07:32:25;;;;;;;38.28;23.05;;;;;;;;;;4916891;29;20087;-68
2022/11/05 07:34:52;;;;;;;34.95;22.63;;;;;;;;;;4918073;29;20121;-67
2022/11/05 07:37:19;;;;;;;34.85;22.15;;;;;;;;;;4918747;29;20083;-68
2022/11/05 07:39:47;;;;;;;33.83;21.55;;;;;;;;;;4917237;29;20171;-67
2022/11/05 07:42:14;;;;;;;32.50;21.00;;;;;;;;;;4917831;29;20067;-69
2022/11/05 07:44:42;;;;;;;35.75;22.52;;;;;;;;;;4917772;29;20051;-67
2022/11/05 07:47:09;;;;;;;33.53;21.77;;;;;;;;;;4917963;29;20040;-67
2022/11/05 07:49:37;;;;;;;32.60;22.20;;;;;;;;;;4917736;29;20054;-68
2022/11/05 07:52:04;;;;;;;34.20;23.38;;;;;;;;;;4917445;29;20036;-69
2022/11/05 07:54:32;;;;;;;36.13;23.70;;;;;;;;;;4917728;29;20162;-69
2022/11/05 07:57:00;;;;;;;32.75;22.88;;;;;;;;;;4914878;29;20483;-68
2022/11/05 07:59:27;;;;;;;35.78;21.95;;;;;;;;;;4917790;29;20197;-68
2022/11/05 08:01:55;;;;;;;33.85;22.10;;;;;;;;;;4918165;29;20060;-68
2022/11/05 08:04:22;;;;;;;35.53;22.02;;;;;;;;;;4917861;29;20584;-68
2022/11/05 08:06:50;;;;;;;34.60;21.90;;;;;;;;;;4926775;29;20080;-68
2022/11/05 08:09:17;;;;;;;34.38;21.85;;;;;;;;;;4917948;29;20044;-68
2022/11/05 08:11:45;;;;;;;36.38;20.80;;;;;;;;;;4918124;29;20052;-68
2022/11/05 08:14:12;;;;;;;33.80;19.42;;;;;;;;;;4918045;29;20206;-69
2022/11/05 08:16:39;;;;;;;32.83;19.65;;;;;;;;;;4914605;29;20063;-69
2022/11/05 08:19:07;;;;;;;30.38;19.88;;;;;;;;;;4917592;29;20080;-67
2022/11/05 08:21:34;;;;;;;30.05;19.83;;;;;;;;;;4917606;29;20068;-68
2022/11/05 08:24:02;;;;;;;31.65;19.63;;;;;;;;;;4917831;29;20044;-71
2022/11/05 08:26:29;;;;;;;29.02;19.40;;;;;;;;;;4916687;29;20579;-70
2022/11/05 08:28:57;;;;;;;30.42;18.60;;;;;;;;;;4917582;29;20040;-73
2022/11/05 08:31:24;;;;;;;30.15;20.38;;;;;;;;;;4917561;29;20079;-71
2022/11/05 08:33:52;;;;;;;28.77;19.08;;;;;;;;;;4917749;29;20044;-74
2022/11/05 08:36:26;;;;;;;34.83;22.10;;;;;;;;;;4917517;29;21327;-73
2022/11/05 08:38:53;;;;;;;34.95;20.88;;;;;;;;;;4916376;29;20170;-73
2022/11/05 08:41:22;;;;;;;28.17;19.13;;;;;;;;;;4917558;29;20493;-73
2022/11/05 08:43:49;;;;;;;35.15;19.70;;;;;;;;;;4916623;29;20040;-72
2022/11/05 08:46:17;;;;;;;28.17;19.48;;;;;;;;;;4916870;29;20473;-73
2022/11/05 08:48:44;;;;;;;30.40;19.08;;;;;;;;;;4917513;29;20096;-71
2022/11/05 08:51:11;;;;;;;28.48;19.15;;;;;;;;;;4917152;29;20055;-72
2022/11/05 08:53:39;;;;;;;26.42;18.10;;;;;;;;;;4917487;29;20036;-71
2022/11/05 08:56:06;;;;;;;28.60;18.92;;;;;;;;;;4917503;29;20112;-72
2022/11/05 08:58:34;;;;;;;31.63;20.58;;;;;;;;;;4917386;29;20040;-72
2022/11/05 09:01:03;;;;;;;34.40;22.02;;;;;;;;;;4904671;29;20041;-72
2022/11/05 09:03:32;;;;;;;28.88;18.50;;;;;;;;;;4906626;29;20036;-72
2022/11/05 09:05:59;;;;;;;27.92;18.33;;;;;;;;;;4917290;29;20126;-70
2022/11/05 09:08:26;;;;;;;30.05;18.42;;;;;;;;;;4915719;29;20447;-69
2022/11/05 09:10:54;;;;;;;32.55;19.77;;;;;;;;;;4909211;29;20467;-73
2022/11/05 09:13:21;;;;;;;28.75;19.40;;;;;;;;;;4898903;29;20111;-72
2022/11/05 09:15:49;;;;;;;29.63;18.30;;;;;;;;;;4907702;29;20127;-73
2022/11/05 09:18:17;;;;;;;25.95;18.48;;;;;;;;;;4916722;29;20043;-72
2022/11/05 09:20:45;;;;;;;28.08;18.13;;;;;;;;;;4919087;29;20139;-73
2022/11/05 09:23:16;;;;;;;29.65;18.92;;;;;;;;;;4917272;29;20056;-74
2022/11/05 09:25:44;;;;;;;28.17;17.58;;;;;;;;;;4915813;29;20055;-71
2022/11/05 09:28:16;;;;;;;30.02;19.42;;;;;;;;;;4915899;29;20518;-71
2022/11/05 09:30:45;;;;;;;30.20;18.02;;;;;;;;;;4917645;29;20083;-70
2022/11/05 09:33:12;;;;;;;30.98;18.15;;;;;;;;;;4917748;29;20063;-77
2022/11/05 09:35:41;;;;;;;26.55;17.23;;;;;;;;;;4936360;29;20402;-79
2022/11/05 09:38:08;;;;;;;24.48;18.33;;;;;;;;;;4936039;29;20469;-76
2022/11/05 09:40:38;;;;;;;26.83;17.50;;;;;;;;;;4935869;29;20044;-79
2022/11/05 09:43:06;;;;;;;29.83;18.00;;;;;;;;;;4915770;29;20040;-76
2022/11/05 09:45:35;;;;;;;27.77;17.05;;;;;;;;;;4901210;29;20118;-76
2022/11/05 09:48:10;;;;;;;29.08;18.85;;;;;;;;;;4916915;29;20503;-76
2022/11/05 09:50:37;;;;;;;;;;;;;;;;;;4916825;29;20499;-73
2022/11/05 09:53:05;;;;;;;31.67;17.58;;;;;;;;;;4916605;29;19930;-73
2022/11/05 09:55:35;;;;;;;29.00;18.83;;;;;;;;;;4912503;29;20137;-73
2022/11/05 09:58:05;;;;;;;31.30;19.23;;;;;;;;;;4915658;29;20415;-74
2022/11/05 10:00:33;;;;;;;29.05;18.55;;;;;;;;;;4914342;29;20044;-75
2022/11/05 10:03:04;;;;;;;33.28;19.38;;;;;;;;;;4914840;29;20073;-74
2022/11/05 10:05:32;;;;;;;32.25;18.42;;;;;;;;;;4916339;29;20075;-74
2022/11/05 10:08:05;;;;;;;28.33;18.90;;;;;;;;;;4916361;29;20123;-75
2022/11/05 10:10:33;;;;;;;28.92;19.65;;;;;;;;;;4915072;29;20043;-74
2022/11/05 10:13:26;;;;;;;32.07;18.47;;;;;;;;;;4916268;29;20096;-76
2022/11/05 10:16:04;;;;;;;30.17;17.70;;;;;;;;;;4910236;29;20040;-76
2022/11/05 10:18:35;;;;;;;36.83;20.00;;;;;;;;;;4916795;29;20078;-77
2022/11/05 10:21:03;;;;;;;26.58;17.85;;;;;;;;;;4916378;29;20051;-75
2022/11/05 10:23:31;;;;;;;25.20;17.30;;;;;;;;;;4916707;29;20133;-76
2022/11/05 10:26:11;;;;;;;28.02;16.65;;;;;;;;;;4916498;29;20376;-76
2022/11/05 10:28:39;;;;;;;29.70;20.08;;;;;;;;;;4916387;29;20261;-76
2022/11/05 10:31:08;;;;;;;28.88;18.67;;;;;;;;;;4916238;29;20039;-76
2022/11/05 10:33:39;;;;;;;29.95;18.10;;;;;;;;;;4916029;29;20052;-76
2022/11/05 10:36:09;;;;;;;25.95;16.70;;;;;;;;;;4915695;29;20044;-76
2022/11/05 10:38:37;;;;;;;24.17;17.77;;;;;;;;;;4916159;29;20048;-76
2022/11/05 10:41:14;;;;;;;26.05;17.90;;;;;;;;;;4915960;29;20044;-76
2022/11/05 10:43:47;;;;;;;27.10;18.40;;;;;;;;;;4915193;29;20064;-77
2022/11/05 10:46:14;;;;;;;32.40;17.92;;;;;;;;;;4915710;29;20479;-76
2022/11/05 10:48:47;;;;;;;25.52;17.13;;;;;;;;;;4914677;29;20032;-76
2022/11/05 10:51:16;;;;;;;29.00;17.77;;;;;;;;;;4915803;29;20551;-74
2022/11/05 10:53:52;;;;;;;29.20;17.90;;;;;;;;;;4916089;29;20091;-76
2022/11/05 10:56:29;;;;;;;28.13;17.00;;;;;;;;;;4915837;29;20111;-75
2022/11/05 10:58:57;;;;;;;24.20;15.85;;;;;;;;;;4915901;29;20406;-75
2022/11/05 11:01:25;;;;;;;24.23;15.85;;;;;;;;;;4915882;29;20402;-76
2022/11/05 11:04:04;;;;;;;24.55;16.25;;;;;;;;;;4915859;29;20194;-76
2022/11/05 11:06:37;;;;;;;29.02;16.48;;;;;;;;;;4917462;29;20055;-76
2022/11/05 11:09:17;;;;;;;28.73;17.38;;;;;;;;;;4919428;29;20534;-76
2022/11/05 11:11:45;;;;;;;26.90;16.55;;;;;;;;;;4919252;29;20052;-77
2022/11/05 11:14:12;;;;;;;24.13;16.70;;;;;;;;;;4919716;29;20072;-77
2022/11/05 11:16:41;;;;;;;28.40;17.35;;;;;;;;;;4919336;29;20044;-77
2022/11/05 11:19:20;;;;;;;28.50;17.48;;;;;;;;;;4918700;29;20040;-77
2022/11/05 11:22:09;;;;;;;28.73;17.90;;;;;;;;;;4919120;29;20044;-75
2022/11/05 11:24:38;;;;;;;27.42;17.45;;;;;;;;;;4919180;29;20111;-76
2022/11/05 11:27:21;;;;;;;28.55;16.35;;;;;;;;;;4919127;29;20044;-77
2022/11/05 11:29:50;;;;;;;26.50;16.25;;;;;;;;;;4918955;29;20048;-75
2022/11/05 11:32:20;;;;;;;27.10;18.00;;;;;;;;;;4919006;29;20042;-77
2022/11/05 11:34:52;;;;;;;28.10;17.25;;;;;;;;;;4918877;29;20043;-75
2022/11/05 11:37:23;;;;;;;30.13;16.35;;;;;;;;;;4919107;29;20048;-76
2022/11/05 11:39:53;;;;;;;27.25;16.27;;;;;;;;;;4919228;29;20040;-78
2022/11/05 11:42:28;;;;;;;23.42;15.43;;;;;;;;;;4919015;29;20055;-76
2022/11/05 11:44:58;;;;;;;26.30;17.38;;;;;;;;;;4914962;29;20040;-77
2022/11/05 11:47:26;;;;;;;30.35;16.77;;;;;;;;;;4917834;29;20495;-75
2022/11/05 11:49:56;;;;;;;27.73;16.17;;;;;;;;;;4917793;29;20072;-75
2022/11/05 11:52:29;;;;;;;28.35;17.73;;;;;;;;;;4917975;29;20111;-76
2022/11/05 11:55:09;;;;;;;29.20;16.88;;;;;;;;;;4915085;29;20487;-76
2022/11/05 11:58:05;;;;;;;28.65;17.70;;;;;;;;;;4915383;29;20040;-75
2022/11/05 12:00:39;;;;;;;28.67;14.88;;;;;;;;;;4918108;29;20040;-73
2022/11/05 12:03:09;;;;;;;25.33;16.48;;;;;;;;;;4918316;29;20143;-76
2022/11/05 12:05:40;;;;;;;28.45;16.85;;;;;;;;;;4917196;29;20056;-79
2022/11/05 12:08:16;;;;;;;28.35;17.25;;;;;;;;;;4918279;29;20074;-76
2022/11/05 12:10:51;;;;;;;29.23;17.55;;;;;;;;;;4918701;29;20052;-76
2022/11/05 12:13:19;;;;;;;32.58;19.40;;;;;;;;;;4918474;29;20475;-76
2022/11/05 12:15:54;;;;;;;31.83;21.13;;;;;;;;;;4918429;29;20068;-76
2022/11/05 12:18:41;;;;;;;28.92;18.35;;;;;;;;;;4917846;29;20036;-76
2022/11/05 12:21:20;;;;;;;31.23;17.45;;;;;;;;;;4918476;29;20044;-75
2022/11/05 12:24:13;;;;;;;28.48;17.80;;;;;;;;;;4918140;29;20044;-74
2022/11/05 12:26:40;;;;;;;44.25;22.48;;;;;;;;;;4918001;29;20475;-75
2022/11/05 12:29:20;;;;;;;32.20;17.95;;;;;;;;;;4917822;29;20048;-76
2022/11/05 12:31:54;;;;;;;29.08;17.95;;;;;;;;;;4917984;29;20407;-75
2022/11/05 12:34:22;;;;;;;32.95;18.40;;;;;;;;;;4917212;29;20419;-75
2022/11/05 12:37:07;;;;;;;32.78;18.35;;;;;;;;;;4916745;29;20059;-77
2022/11/05 12:39:53;;;;;;;30.50;18.45;;;;;;;;;;4917190;29;20052;-75
2022/11/05 12:42:21;;;;;;;25.20;17.05;;;;;;;;;;4917922;29;20394;-77
2022/11/05 12:44:52;;;;;;;28.85;18.45;;;;;;;;;;4917687;29;20511;-76
2022/11/05 12:47:26;;;;;;;28.33;17.50;;;;;;;;;;4918008;29;20036;-76
2022/11/05 12:49:58;;;;;;;30.80;17.88;;;;;;;;;;4917657;29;20563;-76
2022/11/05 12:52:55;;;;;;;31.85;17.50;;;;;;;;;;4917788;29;20131;-75
2022/11/05 12:55:24;;;;;;;32.40;19.23;;;;;;;;;;4909491;29;20134;-75
2022/11/05 12:57:53;;;;;;;30.30;17.98;;;;;;;;;;4917358;29;20682;-75
2022/11/05 13:00:22;;;;;;;36.30;19.80;;;;;;;;;;4916923;29;20541;-75
2022/11/05 13:02:56;;;;;;;31.08;18.65;;;;;;;;;;4916385;29;20672;-69
2022/11/05 13:05:34;;;;;;;27.58;18.00;;;;;;;;;;4916041;29;20040;-68
2022/11/05 13:08:08;;;;;;;26.92;16.65;;;;;;;;;;4916403;29;20722;-68
2022/11/05 13:10:51;;;;;;;28.80;16.77;;;;;;;;;;4916976;29;20048;-70
2022/11/05 13:13:25;;;;;;;28.70;16.65;;;;;;;;;;4917430;29;20044;-70
2022/11/05 13:16:09;;;;;;;28.33;16.80;;;;;;;;;;4917269;29;20052;-70
2022/11/05 13:18:52;;;;;;;30.33;17.20;;;;;;;;;;4916915;29;20505;-70
2022/11/05 13:21:22;;;;;;;28.70;16.73;;;;;;;;;;4917161;29;20050;-70
2022/11/05 13:23:54;;;;;;;27.38;16.73;;;;;;;;;;4916682;29;20491;-70
2022/11/05 13:26:28;;;;;;;27.60;16.40;;;;;;;;;;4917470;29;20048;-68
2022/11/05 13:29:01;;;;;;;26.60;16.92;;;;;;;;;;4916929;29;20479;-71
2022/11/05 13:31:34;;;;;;;28.85;17.40;;;;;;;;;;4916903;29;20048;-74
2022/11/05 13:34:04;;;;;;;30.80;17.30;;;;;;;;;;4916693;29;20040;-72
2022/11/05 13:39:23;;;;;;;29.30;15.88;;;;;;;;;;4914676;29;20124;-72
2022/11/05 13:41:59;;;;;;;27.63;17.00;;;;;;;;;;4915485;29;20078;-72
2022/11/05 13:44:30;;;;;;;29.10;16.63;;;;;;;;;;4916211;29;20051;-73
2022/11/05 13:47:06;;;;;;;28.30;17.25;;;;;;;;;;4916415;29;20045;-73
2022/11/05 13:49:46;;;;;;;24.70;15.70;;;;;;;;;;4915783;29;20052;-73
2022/11/05 13:52:35;;;;;;;24.40;15.85;;;;;;;;;;4915748;29;20119;-72
2022/11/05 13:55:15;;;;;;;21.88;16.20;;;;;;;;;;4916712;29;20044;-72
2022/11/05 13:57:51;;;;;;;28.08;16.75;;;;;;;;;;4916737;29;20047;-72
2022/11/05 14:00:20;;;;;;;28.15;17.60;;;;;;;;;;4917039;29;20487;-72
2022/11/05 14:02:54;;;;;;;27.90;17.30;;;;;;;;;;4916525;29;20118;-72
2022/11/05 14:05:21;;;;;;;30.17;17.45;;;;;;;;;;4916603;29;20558;-72
2022/11/05 14:07:49;;;;;;;30.00;18.20;;;;;;;;;;4916800;29;20044;-72
2022/11/05 14:10:30;;;;;;;28.23;17.65;;;;;;;;;;4916919;29;20051;-72
2022/11/05 14:12:59;;;;;;;29.20;18.20;;;;;;;;;;4916494;29;20040;-71
2022/11/05 14:15:27;;;;;;;27.42;17.00;;;;;;;;;;4916482;29;20047;-72
2022/11/05 14:18:01;;;;;;;26.75;16.25;;;;;;;;;;4916407;29;20111;-72
2022/11/05 14:20:31;;;;;;;24.17;16.60;;;;;;;;;;4915824;29;20048;-73
2022/11/05 14:23:38;;;;;;;22.77;16.52;;;;;;;;;;4915447;29;20128;-69
2022/11/05 14:26:05;;;;;;;;;;;;;;;;;;4857413;29;20045;-71
2022/11/05 14:28:35;;;;;;;25.02;16.83;;;;;;;;;;4858110;29;20403;-69
2022/11/05 14:31:04;;;;;;;50.40;31.73;;;;;;;;;;4887814;29;20067;-69
2022/11/05 14:33:32;;;;;;;27.17;16.98;;;;;;;;;;4916407;29;20040;-69
2022/11/05 14:36:18;;;;;;;34.15;22.10;;;;;;;;;;4916148;29;20044;-68
2022/11/05 14:38:50;;;;;;;31.65;20.38;;;;;;;;;;4916167;29;20047;-69
2022/11/05 14:41:18;;;;;;;27.25;19.00;;;;;;;;;;4917707;29;20503;-69
2022/11/05 14:43:48;;;;;;;27.02;18.35;;;;;;;;;;4920180;29;20123;-68
2022/11/05 14:46:15;;;;;;;31.95;17.23;;;;;;;;;;4917778;29;20048;-69
2022/11/05 14:49:00;;;;;;;30.77;17.20;;;;;;;;;;4919064;29;20048;-68
2022/11/05 14:51:38;;;;;;;24.40;16.13;;;;;;;;;;4918863;29;20044;-68
2022/11/05 14:54:05;;;;;;;26.35;16.95;;;;;;;;;;4919082;29;20044;-69
2022/11/05 14:56:53;;;;;;;22.52;15.75;;;;;;;;;;4919257;29;20058;-69
2022/11/05 14:59:31;;;;;;;26.35;15.77;;;;;;;;;;4919447;29;20036;-69
2022/11/05 15:02:02;;;;;;;28.45;16.90;;;;;;;;;;4919542;29;20099;-69
2022/11/05 15:04:29;;;;;;;26.77;17.27;;;;;;;;;;4919622;29;20439;-70
2022/11/05 15:07:03;;;;;;;27.85;16.95;;;;;;;;;;4919642;29;20044;-69
2022/11/05 15:09:39;;;;;;;29.33;17.52;;;;;;;;;;4919615;29;20076;-70
2022/11/05 15:12:18;;;;;;;30.77;17.55;;;;;;;;;;4919496;29;20048;-69
2022/11/05 15:14:55;;;;;;;26.45;17.20;;;;;;;;;;4919652;29;20048;-69
2022/11/05 15:17:28;;;;;;;27.45;16.60;;;;;;;;;;4919412;29;20390;-69
2022/11/05 15:20:08;;;;;;;28.02;17.02;;;;;;;;;;4919567;29;20050;-69
2022/11/05 15:22:47;;;;;;;26.20;17.65;;;;;;;;;;4919719;29;20480;-71
2022/11/05 15:25:23;;;;;;;29.80;17.58;;;;;;;;;;4919258;29;20052;-68
2022/11/05 15:27:53;;;;;;;28.90;16.02;;;;;;;;;;4919368;29;20363;-68